sensor_id;sensor_type;location;lat;lon;timestamp;P1;durP1;ratioP1;P2;durP2;ratioP2
45366;SDS011;31100;55.848;37.636;2022-11-15T00:00:32;2.97;;;1.10;;
45366;SDS011;31100;55.848;37.636;2022-11-15T00:02:58;2.47;;;0.80;;
45366;SDS011;31100;55.848;37.636;2022-11-15T00:05:24;3.45;;;1.35;;
45366;SDS011;31100;55.848;37.636;2022-11-15T00:07:50;3.70;;;1.00;;
45366;SDS011;31100;55.848;37.636;2022-11-15T00:10:16;3.03;;;1.15;;
45366;SDS011;31100;55.848;37.636;2022-11-15T00:12:42;3.78;;;0.77;;
45366;SDS011;31100;55.848;37.636;2022-11-15T00:15:07;4.38;;;1.60;;
45366;SDS011;31100;55.848;37.636;2022-11-15T00:17:33;3.30;;;0.90;;
45366;SDS011;31100;55.848;37.636;2022-11-15T00:19:58;3.78;;;1.42;;
45366;SDS011;31100;55.848;37.636;2022-11-15T00:22:24;2.92;;;0.88;;
45366;SDS011;31100;55.848;37.636;2022-11-15T00:24:49;2.10;;;0.80;;
45366;SDS011;31100;55.848;37.636;2022-11-15T00:27:15;4.90;;;1.10;;
45366;SDS011;31100;55.848;37.636;2022-11-15T00:29:41;3.63;;;0.90;;
45366;SDS011;31100;55.848;37.636;2022-11-15T00:32:11;3.85;;;1.13;;
45366;SDS011;31100;55.848;37.636;2022-11-15T00:34:37;4.15;;;0.85;;
45366;SDS011;31100;55.848;37.636;2022-11-15T00:37:02;2.08;;;0.70;;
45366;SDS011;31100;55.848;37.636;2022-11-15T00:39:28;2.80;;;0.88;;
45366;SDS011;31100;55.848;37.636;2022-11-15T00:41:53;3.00;;;0.80;;
45366;SDS011;31100;55.848;37.636;2022-11-15T00:44:19;3.33;;;0.70;;
45366;SDS011;31100;55.848;37.636;2022-11-15T00:46:44;6.07;;;1.60;;
45366;SDS011;31100;55.848;37.636;2022-11-15T00:49:10;4.22;;;0.90;;
45366;SDS011;31100;55.848;37.636;2022-11-15T00:51:36;3.45;;;0.90;;
45366;SDS011;31100;55.848;37.636;2022-11-15T00:54:01;3.25;;;1.33;;
45366;SDS011;31100;55.848;37.636;2022-11-15T00:56:27;2.42;;;0.80;;
45366;SDS011;31100;55.848;37.636;2022-11-15T00:58:52;3.67;;;0.75;;
45366;SDS011;31100;55.848;37.636;2022-11-15T01:01:18;2.28;;;0.80;;
45366;SDS011;31100;55.848;37.636;2022-11-15T01:03:44;2.08;;;0.80;;
45366;SDS011;31100;55.848;37.636;2022-11-15T01:06:09;1.50;;;0.70;;
45366;SDS011;31100;55.848;37.636;2022-11-15T01:08:35;2.63;;;0.73;;
45366;SDS011;31100;55.848;37.636;2022-11-15T01:11:02;3.63;;;0.70;;
45366;SDS011;31100;55.848;37.636;2022-11-15T01:13:29;3.72;;;0.90;;
45366;SDS011;31100;55.848;37.636;2022-11-15T01:15:56;3.70;;;0.70;;
45366;SDS011;31100;55.848;37.636;2022-11-15T01:18:22;2.47;;;1.00;;
45366;SDS011;31100;55.848;37.636;2022-11-15T01:20:47;5.60;;;1.13;;
45366;SDS011;31100;55.848;37.636;2022-11-15T01:23:13;2.08;;;0.73;;
45366;SDS011;31100;55.848;37.636;2022-11-15T01:25:39;3.50;;;0.73;;
45366;SDS011;31100;55.848;37.636;2022-11-15T01:28:05;2.80;;;0.98;;
45366;SDS011;31100;55.848;37.636;2022-11-15T01:30:31;3.35;;;0.90;;
45366;SDS011;31100;55.848;37.636;2022-11-15T01:32:56;2.45;;;1.10;;
45366;SDS011;31100;55.848;37.636;2022-11-15T01:35:22;2.13;;;0.88;;
45366;SDS011;31100;55.848;37.636;2022-11-15T01:37:48;3.15;;;0.80;;
45366;SDS011;31100;55.848;37.636;2022-11-15T01:40:13;2.85;;;0.90;;
45366;SDS011;31100;55.848;37.636;2022-11-15T01:42:39;3.97;;;0.90;;
45366;SDS011;31100;55.848;37.636;2022-11-15T01:45:05;2.63;;;1.08;;
45366;SDS011;31100;55.848;37.636;2022-11-15T01:47:31;3.83;;;0.98;;
45366;SDS011;31100;55.848;37.636;2022-11-15T01:50:03;5.97;;;1.00;;
45366;SDS011;31100;55.848;37.636;2022-11-15T01:52:31;5.15;;;1.13;;
45366;SDS011;31100;55.848;37.636;2022-11-15T01:55:02;5.47;;;1.08;;
45366;SDS011;31100;55.848;37.636;2022-11-15T01:57:33;4.15;;;1.17;;
45366;SDS011;31100;55.848;37.636;2022-11-15T01:59:59;3.30;;;1.02;;
45366;SDS011;31100;55.848;37.636;2022-11-15T02:02:28;4.68;;;1.40;;
45366;SDS011;31100;55.848;37.636;2022-11-15T02:04:53;2.97;;;1.00;;
45366;SDS011;31100;55.848;37.636;2022-11-15T02:07:19;5.68;;;1.77;;
45366;SDS011;31100;55.848;37.636;2022-11-15T02:09:46;3.17;;;1.10;;
45366;SDS011;31100;55.848;37.636;2022-11-15T02:12:13;7.00;;;1.08;;
45366;SDS011;31100;55.848;37.636;2022-11-15T02:14:42;4.95;;;0.98;;
45366;SDS011;31100;55.848;37.636;2022-11-15T02:17:12;2.83;;;1.10;;
45366;SDS011;31100;55.848;37.636;2022-11-15T02:32:45;3.72;;;1.02;;
45366;SDS011;31100;55.848;37.636;2022-11-15T02:35:50;3.00;;;1.13;;
45366;SDS011;31100;55.848;37.636;2022-11-15T02:38:11;4.40;;;1.00;;
45366;SDS011;31100;55.848;37.636;2022-11-15T02:40:48;4.45;;;0.90;;
45366;SDS011;31100;55.848;37.636;2022-11-15T02:43:22;5.43;;;1.08;;
45366;SDS011;31100;55.848;37.636;2022-11-15T02:49:23;3.72;;;1.10;;
45366;SDS011;31100;55.848;37.636;2022-11-15T02:51:50;4.28;;;0.98;;
45366;SDS011;31100;55.848;37.636;2022-11-15T02:54:25;4.25;;;1.00;;
45366;SDS011;31100;55.848;37.636;2022-11-15T02:56:54;6.25;;;1.42;;
45366;SDS011;31100;55.848;37.636;2022-11-15T03:04:56;5.57;;;1.17;;
45366;SDS011;31100;55.848;37.636;2022-11-15T03:07:36;3.80;;;1.00;;
45366;SDS011;31100;55.848;37.636;2022-11-15T03:10:32;3.83;;;1.20;;
45366;SDS011;31100;55.848;37.636;2022-11-15T03:16:21;5.20;;;0.95;;
45366;SDS011;31100;55.848;37.636;2022-11-15T03:18:45;4.20;;;1.00;;
45366;SDS011;31100;55.848;37.636;2022-11-15T03:23:40;5.63;;;1.83;;
45366;SDS011;31100;55.848;37.636;2022-11-15T03:26:07;11.38;;;3.95;;
45366;SDS011;31100;55.848;37.636;2022-11-15T03:28:42;4.10;;;1.35;;
45366;SDS011;31100;55.848;37.636;2022-11-15T03:31:12;3.85;;;1.33;;
45366;SDS011;31100;55.848;37.636;2022-11-15T03:33:58;4.63;;;2.00;;
45366;SDS011;31100;55.848;37.636;2022-11-15T03:36:25;5.82;;;1.58;;
45366;SDS011;31100;55.848;37.636;2022-11-15T03:38:53;3.90;;;1.63;;
45366;SDS011;31100;55.848;37.636;2022-11-15T03:41:28;4.30;;;1.50;;
45366;SDS011;31100;55.848;37.636;2022-11-15T03:44:04;5.90;;;1.65;;
45366;SDS011;31100;55.848;37.636;2022-11-15T03:46:39;9.13;;;1.73;;
45366;SDS011;31100;55.848;37.636;2022-11-15T03:49:17;5.88;;;1.42;;
45366;SDS011;31100;55.848;37.636;2022-11-15T03:51:47;6.80;;;1.20;;
45366;SDS011;31100;55.848;37.636;2022-11-15T03:54:12;8.57;;;1.60;;
45366;SDS011;31100;55.848;37.636;2022-11-15T03:56:38;4.35;;;1.92;;
45366;SDS011;31100;55.848;37.636;2022-11-15T03:59:04;5.30;;;2.05;;
45366;SDS011;31100;55.848;37.636;2022-11-15T04:01:29;5.43;;;1.48;;
45366;SDS011;31100;55.848;37.636;2022-11-15T04:03:55;4.55;;;1.30;;
45366;SDS011;31100;55.848;37.636;2022-11-15T04:06:20;4.72;;;1.73;;
45366;SDS011;31100;55.848;37.636;2022-11-15T04:08:46;10.75;;;2.30;;
45366;SDS011;31100;55.848;37.636;2022-11-15T04:11:11;3.97;;;1.67;;
45366;SDS011;31100;55.848;37.636;2022-11-15T04:13:37;8.05;;;1.58;;
45366;SDS011;31100;55.848;37.636;2022-11-15T04:16:03;7.88;;;1.85;;
45366;SDS011;31100;55.848;37.636;2022-11-15T04:18:28;4.88;;;1.60;;
45366;SDS011;31100;55.848;37.636;2022-11-15T04:20:54;9.10;;;2.03;;
45366;SDS011;31100;55.848;37.636;2022-11-15T04:23:38;8.05;;;2.60;;
45366;SDS011;31100;55.848;37.636;2022-11-15T04:26:22;8.55;;;3.10;;
45366;SDS011;31100;55.848;37.636;2022-11-15T04:28:48;11.73;;;3.65;;
45366;SDS011;31100;55.848;37.636;2022-11-15T04:31:32;6.95;;;1.85;;
45366;SDS011;31100;55.848;37.636;2022-11-15T04:33:58;4.05;;;1.15;;
45366;SDS011;31100;55.848;37.636;2022-11-15T04:36:24;5.75;;;1.30;;
45366;SDS011;31100;55.848;37.636;2022-11-15T04:39:08;6.15;;;1.80;;
45366;SDS011;31100;55.848;37.636;2022-11-15T04:41:34;4.65;;;1.50;;
45366;SDS011;31100;55.848;37.636;2022-11-15T04:44:00;4.50;;;1.50;;
45366;SDS011;31100;55.848;37.636;2022-11-15T04:46:26;5.40;;;1.60;;
45366;SDS011;31100;55.848;37.636;2022-11-15T04:48:52;5.60;;;1.48;;
45366;SDS011;31100;55.848;37.636;2022-11-15T04:51:18;7.30;;;1.50;;
45366;SDS011;31100;55.848;37.636;2022-11-15T04:53:44;3.83;;;1.48;;
45366;SDS011;31100;55.848;37.636;2022-11-15T04:56:09;5.57;;;1.70;;
45366;SDS011;31100;55.848;37.636;2022-11-15T04:58:35;5.68;;;1.70;;
45366;SDS011;31100;55.848;37.636;2022-11-15T05:01:18;10.65;;;2.00;;
45366;SDS011;31100;55.848;37.636;2022-11-15T05:03:44;4.78;;;1.92;;
45366;SDS011;31100;55.848;37.636;2022-11-15T05:06:29;6.95;;;1.50;;
45366;SDS011;31100;55.848;37.636;2022-11-15T05:08:55;6.88;;;1.80;;
45366;SDS011;31100;55.848;37.636;2022-11-15T05:11:21;7.90;;;2.20;;
45366;SDS011;31100;55.848;37.636;2022-11-15T05:13:46;11.75;;;2.20;;
45366;SDS011;31100;55.848;37.636;2022-11-15T05:16:12;11.50;;;3.72;;
45366;SDS011;31100;55.848;37.636;2022-11-15T05:18:38;16.50;;;5.28;;
45366;SDS011;31100;55.848;37.636;2022-11-15T05:21:07;12.52;;;4.13;;
45366;SDS011;31100;55.848;37.636;2022-11-15T05:23:37;8.57;;;2.22;;
45366;SDS011;31100;55.848;37.636;2022-11-15T05:26:03;10.40;;;2.80;;
45366;SDS011;31100;55.848;37.636;2022-11-15T05:28:30;10.52;;;2.50;;
45366;SDS011;31100;55.848;37.636;2022-11-15T05:31:03;8.63;;;1.83;;
45366;SDS011;31100;55.848;37.636;2022-11-15T05:33:30;11.70;;;2.20;;
45366;SDS011;31100;55.848;37.636;2022-11-15T05:36:04;9.73;;;2.08;;
45366;SDS011;31100;55.848;37.636;2022-11-15T05:38:32;12.95;;;2.13;;
45366;SDS011;31100;55.848;37.636;2022-11-15T05:40:59;8.75;;;1.80;;
45366;SDS011;31100;55.848;37.636;2022-11-15T05:43:25;8.52;;;1.95;;
45366;SDS011;31100;55.848;37.636;2022-11-15T05:45:50;5.97;;;1.90;;
45366;SDS011;31100;55.848;37.636;2022-11-15T05:48:16;5.68;;;1.85;;
45366;SDS011;31100;55.848;37.636;2022-11-15T05:50:43;9.90;;;1.67;;
45366;SDS011;31100;55.848;37.636;2022-11-15T05:53:09;7.05;;;2.00;;
45366;SDS011;31100;55.848;37.636;2022-11-15T05:55:37;9.38;;;2.35;;
45366;SDS011;31100;55.848;37.636;2022-11-15T05:58:03;9.38;;;2.20;;
45366;SDS011;31100;55.848;37.636;2022-11-15T06:00:29;4.93;;;1.90;;
45366;SDS011;31100;55.848;37.636;2022-11-15T06:02:54;4.78;;;1.70;;
45366;SDS011;31100;55.848;37.636;2022-11-15T06:05:20;6.00;;;1.90;;
45366;SDS011;31100;55.848;37.636;2022-11-15T06:07:45;6.00;;;1.73;;
45366;SDS011;31100;55.848;37.636;2022-11-15T06:10:11;5.43;;;1.60;;
45366;SDS011;31100;55.848;37.636;2022-11-15T06:12:36;9.45;;;2.42;;
45366;SDS011;31100;55.848;37.636;2022-11-15T06:15:02;9.50;;;2.60;;
45366;SDS011;31100;55.848;37.636;2022-11-15T06:17:29;15.32;;;2.53;;
45366;SDS011;31100;55.848;37.636;2022-11-15T06:19:55;8.30;;;3.25;;
45366;SDS011;31100;55.848;37.636;2022-11-15T06:22:20;10.48;;;3.15;;
45366;SDS011;31100;55.848;37.636;2022-11-15T06:24:48;10.05;;;3.35;;
45366;SDS011;31100;55.848;37.636;2022-11-15T06:27:16;8.52;;;2.33;;
45366;SDS011;31100;55.848;37.636;2022-11-15T06:29:42;9.73;;;2.53;;
45366;SDS011;31100;55.848;37.636;2022-11-15T06:32:07;7.63;;;2.58;;
45366;SDS011;31100;55.848;37.636;2022-11-15T06:34:33;5.32;;;2.30;;
45366;SDS011;31100;55.848;37.636;2022-11-15T06:37:00;7.68;;;2.42;;
45366;SDS011;31100;55.848;37.636;2022-11-15T06:39:26;4.10;;;2.00;;
45366;SDS011;31100;55.848;37.636;2022-11-15T06:41:52;5.63;;;2.20;;
45366;SDS011;31100;55.848;37.636;2022-11-15T06:44:20;8.13;;;2.55;;
45366;SDS011;31100;55.848;37.636;2022-11-15T06:46:45;5.28;;;2.10;;
45366;SDS011;31100;55.848;37.636;2022-11-15T06:49:11;6.30;;;2.72;;
45366;SDS011;31100;55.848;37.636;2022-11-15T06:51:39;4.88;;;1.90;;
45366;SDS011;31100;55.848;37.636;2022-11-15T06:54:04;6.78;;;2.28;;
45366;SDS011;31100;55.848;37.636;2022-11-15T06:56:30;5.82;;;1.77;;
45366;SDS011;31100;55.848;37.636;2022-11-15T06:58:58;7.45;;;3.20;;
45366;SDS011;31100;55.848;37.636;2022-11-15T07:01:23;7.22;;;2.20;;
45366;SDS011;31100;55.848;37.636;2022-11-15T07:03:49;8.13;;;2.30;;
45366;SDS011;31100;55.848;37.636;2022-11-15T07:06:14;7.07;;;2.10;;
45366;SDS011;31100;55.848;37.636;2022-11-15T07:08:40;6.93;;;2.10;;
45366;SDS011;31100;55.848;37.636;2022-11-15T07:11:07;5.72;;;1.98;;
45366;SDS011;31100;55.848;37.636;2022-11-15T07:13:34;5.57;;;1.70;;
45366;SDS011;31100;55.848;37.636;2022-11-15T07:16:02;7.25;;;2.55;;
45366;SDS011;31100;55.848;37.636;2022-11-15T07:18:28;6.47;;;2.08;;
45366;SDS011;31100;55.848;37.636;2022-11-15T07:20:55;7.07;;;2.30;;
45366;SDS011;31100;55.848;37.636;2022-11-15T07:23:23;5.30;;;2.42;;
45366;SDS011;31100;55.848;37.636;2022-11-15T07:25:48;6.78;;;2.33;;
45366;SDS011;31100;55.848;37.636;2022-11-15T07:28:16;5.32;;;1.92;;
45366;SDS011;31100;55.848;37.636;2022-11-15T07:30:42;7.72;;;2.50;;
45366;SDS011;31100;55.848;37.636;2022-11-15T07:33:07;6.85;;;2.45;;
45366;SDS011;31100;55.848;37.636;2022-11-15T07:35:33;8.95;;;2.63;;
45366;SDS011;31100;55.848;37.636;2022-11-15T07:37:59;6.28;;;2.00;;
45366;SDS011;31100;55.848;37.636;2022-11-15T07:40:27;5.85;;;2.13;;
45366;SDS011;31100;55.848;37.636;2022-11-15T07:43:04;5.20;;;2.05;;
45366;SDS011;31100;55.848;37.636;2022-11-15T07:45:31;6.80;;;2.55;;
45366;SDS011;31100;55.848;37.636;2022-11-15T07:48:00;13.90;;;4.03;;
45366;SDS011;31100;55.848;37.636;2022-11-15T07:50:26;8.00;;;2.67;;
45366;SDS011;31100;55.848;37.636;2022-11-15T07:52:54;8.50;;;2.70;;
45366;SDS011;31100;55.848;37.636;2022-11-15T07:55:23;6.20;;;2.53;;
45366;SDS011;31100;55.848;37.636;2022-11-15T07:57:49;5.88;;;2.35;;
45366;SDS011;31100;55.848;37.636;2022-11-15T08:00:17;7.90;;;2.67;;
45366;SDS011;31100;55.848;37.636;2022-11-15T08:02:43;7.18;;;2.40;;
45366;SDS011;31100;55.848;37.636;2022-11-15T08:05:09;5.63;;;2.47;;
45366;SDS011;31100;55.848;37.636;2022-11-15T08:07:35;6.40;;;2.60;;
45366;SDS011;31100;55.848;37.636;2022-11-15T08:10:00;6.07;;;2.20;;
45366;SDS011;31100;55.848;37.636;2022-11-15T08:12:27;7.00;;;2.10;;
45366;SDS011;31100;55.848;37.636;2022-11-15T08:14:54;5.13;;;1.80;;
45366;SDS011;31100;55.848;37.636;2022-11-15T08:17:21;6.95;;;2.35;;
45366;SDS011;31100;55.848;37.636;2022-11-15T08:20:05;10.43;;;2.67;;
45366;SDS011;31100;55.848;37.636;2022-11-15T08:22:37;10.20;;;3.60;;
45366;SDS011;31100;55.848;37.636;2022-11-15T08:25:07;8.40;;;2.35;;
45366;SDS011;31100;55.848;37.636;2022-11-15T08:27:46;8.20;;;2.58;;
45366;SDS011;31100;55.848;37.636;2022-11-15T08:30:16;9.20;;;2.22;;
45366;SDS011;31100;55.848;37.636;2022-11-15T08:32:42;7.07;;;2.05;;
45366;SDS011;31100;55.848;37.636;2022-11-15T08:35:08;11.68;;;3.53;;
45366;SDS011;31100;55.848;37.636;2022-11-15T08:37:33;11.60;;;2.65;;
45366;SDS011;31100;55.848;37.636;2022-11-15T08:39:59;7.15;;;2.10;;
45366;SDS011;31100;55.848;37.636;2022-11-15T08:42:25;9.07;;;2.10;;
45366;SDS011;31100;55.848;37.636;2022-11-15T08:44:50;5.68;;;2.38;;
45366;SDS011;31100;55.848;37.636;2022-11-15T08:47:16;8.57;;;2.70;;
45366;SDS011;31100;55.848;37.636;2022-11-15T08:49:41;7.72;;;2.50;;
45366;SDS011;31100;55.848;37.636;2022-11-15T08:52:08;8.05;;;2.30;;
45366;SDS011;31100;55.848;37.636;2022-11-15T08:54:34;8.35;;;2.30;;
45366;SDS011;31100;55.848;37.636;2022-11-15T08:56:59;12.98;;;3.28;;
45366;SDS011;31100;55.848;37.636;2022-11-15T08:59:25;8.10;;;2.97;;
45366;SDS011;31100;55.848;37.636;2022-11-15T09:01:50;11.65;;;2.70;;
45366;SDS011;31100;55.848;37.636;2022-11-15T09:04:16;8.05;;;2.30;;
45366;SDS011;31100;55.848;37.636;2022-11-15T09:06:41;11.52;;;2.80;;
45366;SDS011;31100;55.848;37.636;2022-11-15T09:09:07;6.43;;;2.55;;
45366;SDS011;31100;55.848;37.636;2022-11-15T09:11:32;10.93;;;2.40;;
45366;SDS011;31100;55.848;37.636;2022-11-15T09:13:58;9.15;;;3.05;;
45366;SDS011;31100;55.848;37.636;2022-11-15T09:16:24;9.88;;;2.65;;
45366;SDS011;31100;55.848;37.636;2022-11-15T09:18:49;12.85;;;2.70;;
45366;SDS011;31100;55.848;37.636;2022-11-15T09:21:15;7.82;;;2.40;;
45366;SDS011;31100;55.848;37.636;2022-11-15T09:23:40;8.85;;;2.33;;
45366;SDS011;31100;55.848;37.636;2022-11-15T09:26:06;8.82;;;2.47;;
45366;SDS011;31100;55.848;37.636;2022-11-15T09:28:32;10.27;;;2.80;;
45366;SDS011;31100;55.848;37.636;2022-11-15T09:30:58;8.85;;;2.58;;
45366;SDS011;31100;55.848;37.636;2022-11-15T09:33:25;7.05;;;2.70;;
45366;SDS011;31100;55.848;37.636;2022-11-15T09:35:50;7.45;;;2.35;;
45366;SDS011;31100;55.848;37.636;2022-11-15T09:38:16;9.38;;;2.53;;
45366;SDS011;31100;55.848;37.636;2022-11-15T09:40:42;13.10;;;2.55;;
45366;SDS011;31100;55.848;37.636;2022-11-15T09:48:21;9.23;;;2.50;;
45366;SDS011;31100;55.848;37.636;2022-11-15T09:50:55;9.70;;;2.70;;
45366;SDS011;31100;55.848;37.636;2022-11-15T09:53:25;10.77;;;3.40;;
45366;SDS011;31100;55.848;37.636;2022-11-15T09:58:36;10.27;;;3.00;;
45366;SDS011;31100;55.848;37.636;2022-11-15T10:01:07;10.70;;;2.90;;
45366;SDS011;31100;55.848;37.636;2022-11-15T10:03:41;9.93;;;2.80;;
45366;SDS011;31100;55.848;37.636;2022-11-15T10:06:13;9.95;;;3.80;;
45366;SDS011;31100;55.848;37.636;2022-11-15T10:11:53;9.73;;;3.05;;
45366;SDS011;31100;55.848;37.636;2022-11-15T10:14:26;11.02;;;3.47;;
45366;SDS011;31100;55.848;37.636;2022-11-15T10:17:06;9.05;;;3.17;;
45366;SDS011;31100;55.848;37.636;2022-11-15T10:19:39;11.32;;;4.22;;
45366;SDS011;31100;55.848;37.636;2022-11-15T10:24:52;29.50;;;15.90;;
45366;SDS011;31100;55.848;37.636;2022-11-15T10:27:26;12.68;;;3.75;;
45366;SDS011;31100;55.848;37.636;2022-11-15T10:29:51;7.80;;;3.00;;
45366;SDS011;31100;55.848;37.636;2022-11-15T10:32:22;7.65;;;2.80;;
45366;SDS011;31100;55.848;37.636;2022-11-15T10:34:48;10.13;;;2.92;;
45366;SDS011;31100;55.848;37.636;2022-11-15T10:37:27;12.98;;;3.60;;
45366;SDS011;31100;55.848;37.636;2022-11-15T10:42:33;10.07;;;3.75;;
45366;SDS011;31100;55.848;37.636;2022-11-15T10:44:58;14.82;;;4.07;;
45366;SDS011;31100;55.848;37.636;2022-11-15T10:47:30;10.10;;;3.05;;
45366;SDS011;31100;55.848;37.636;2022-11-15T10:50:00;14.20;;;3.75;;
45366;SDS011;31100;55.848;37.636;2022-11-15T10:52:45;12.73;;;3.70;;
45366;SDS011;31100;55.848;37.636;2022-11-15T10:57:37;10.65;;;3.97;;
45366;SDS011;31100;55.848;37.636;2022-11-15T11:03:35;12.20;;;3.92;;
45366;SDS011;31100;55.848;37.636;2022-11-15T11:06:12;12.43;;;3.80;;
45366;SDS011;31100;55.848;37.636;2022-11-15T11:08:38;11.00;;;3.50;;
45366;SDS011;31100;55.848;37.636;2022-11-15T11:11:06;19.45;;;4.45;;
45366;SDS011;31100;55.848;37.636;2022-11-15T11:13:37;12.80;;;3.97;;
45366;SDS011;31100;55.848;37.636;2022-11-15T11:18:49;13.90;;;4.63;;
45366;SDS011;31100;55.848;37.636;2022-11-15T11:40:35;15.15;;;5.40;;
45366;SDS011;31100;55.848;37.636;2022-11-15T11:49:06;16.30;;;3.95;;
45366;SDS011;31100;55.848;37.636;2022-11-15T11:51:43;15.75;;;4.38;;
45366;SDS011;31100;55.848;37.636;2022-11-15T11:54:37;12.20;;;3.67;;
45366;SDS011;31100;55.848;37.636;2022-11-15T11:57:05;13.30;;;3.72;;
45366;SDS011;31100;55.848;37.636;2022-11-15T11:59:43;6.97;;;3.65;;
45366;SDS011;31100;55.848;37.636;2022-11-15T12:02:16;12.05;;;3.97;;
45366;SDS011;31100;55.848;37.636;2022-11-15T12:04:49;9.38;;;3.63;;
45366;SDS011;31100;55.848;37.636;2022-11-15T12:07:21;9.57;;;3.47;;
45366;SDS011;31100;55.848;37.636;2022-11-15T12:12:38;12.68;;;4.00;;
45366;SDS011;31100;55.848;37.636;2022-11-15T12:15:15;7.53;;;3.72;;
45366;SDS011;31100;55.848;37.636;2022-11-15T12:17:43;10.00;;;3.30;;
45366;SDS011;31100;55.848;37.636;2022-11-15T12:20:20;13.70;;;5.53;;
45366;SDS011;31100;55.848;37.636;2022-11-15T12:22:55;13.27;;;4.20;;
45366;SDS011;31100;55.848;37.636;2022-11-15T12:28:20;16.00;;;4.43;;
45366;SDS011;31100;55.848;37.636;2022-11-15T12:31:14;15.40;;;4.30;;
45366;SDS011;31100;55.848;37.636;2022-11-15T12:33:42;25.33;;;8.38;;
45366;SDS011;31100;55.848;37.636;2022-11-15T12:36:29;12.35;;;4.75;;
45366;SDS011;31100;55.848;37.636;2022-11-15T12:39:06;14.77;;;5.40;;
45366;SDS011;31100;55.848;37.636;2022-11-15T12:41:34;23.83;;;5.65;;
45366;SDS011;31100;55.848;37.636;2022-11-15T12:44:04;15.23;;;5.85;;
45366;SDS011;31100;55.848;37.636;2022-11-15T12:49:42;21.00;;;7.30;;
45366;SDS011;31100;55.848;37.636;2022-11-15T13:02:41;20.17;;;6.45;;
45366;SDS011;31100;55.848;37.636;2022-11-15T13:17:50;10.43;;;4.95;;
45366;SDS011;31100;55.848;37.636;2022-11-15T13:20:27;14.75;;;5.55;;
45366;SDS011;31100;55.848;37.636;2022-11-15T13:23:11;10.57;;;5.10;;
45366;SDS011;31100;55.848;37.636;2022-11-15T13:28:42;11.50;;;5.05;;
45366;SDS011;31100;55.848;37.636;2022-11-15T13:31:24;17.48;;;5.82;;
45366;SDS011;31100;55.848;37.636;2022-11-15T13:33:51;15.25;;;4.93;;
45366;SDS011;31100;55.848;37.636;2022-11-15T13:36:26;15.50;;;4.38;;
45366;SDS011;31100;55.848;37.636;2022-11-15T13:38:58;18.80;;;4.72;;
45366;SDS011;31100;55.848;37.636;2022-11-15T13:41:28;14.48;;;5.18;;
45366;SDS011;31100;55.848;37.636;2022-11-15T13:43:59;14.27;;;4.55;;
45366;SDS011;31100;55.848;37.636;2022-11-15T13:46:29;10.98;;;4.03;;
45366;SDS011;31100;55.848;37.636;2022-11-15T13:49:04;12.93;;;4.78;;
45366;SDS011;31100;55.848;37.636;2022-11-15T13:51:44;11.77;;;4.88;;
45366;SDS011;31100;55.848;37.636;2022-11-15T13:56:48;15.68;;;5.55;;
45366;SDS011;31100;55.848;37.636;2022-11-15T13:59:20;10.20;;;4.93;;
45366;SDS011;31100;55.848;37.636;2022-11-15T14:01:53;10.13;;;4.93;;
45366;SDS011;31100;55.848;37.636;2022-11-15T14:04:20;14.93;;;6.68;;
45366;SDS011;31100;55.848;37.636;2022-11-15T14:06:49;9.57;;;4.60;;
45366;SDS011;31100;55.848;37.636;2022-11-15T14:09:24;9.80;;;4.43;;
45366;SDS011;31100;55.848;37.636;2022-11-15T14:11:54;11.95;;;4.97;;
45366;SDS011;31100;55.848;37.636;2022-11-15T14:14:23;11.25;;;5.05;;
45366;SDS011;31100;55.848;37.636;2022-11-15T14:16:51;12.98;;;3.83;;
45366;SDS011;31100;55.848;37.636;2022-11-15T14:24:40;10.77;;;4.25;;
45366;SDS011;31100;55.848;37.636;2022-11-15T14:27:22;10.40;;;4.07;;
45366;SDS011;31100;55.848;37.636;2022-11-15T14:29:54;9.40;;;4.70;;
45366;SDS011;31100;55.848;37.636;2022-11-15T14:32:21;10.75;;;4.13;;
45366;SDS011;31100;55.848;37.636;2022-11-15T14:34:54;11.02;;;4.60;;
45366;SDS011;31100;55.848;37.636;2022-11-15T14:37:23;10.00;;;4.60;;
45366;SDS011;31100;55.848;37.636;2022-11-15T14:39:50;12.65;;;5.05;;
45366;SDS011;31100;55.848;37.636;2022-11-15T14:42:16;15.38;;;6.72;;
45366;SDS011;31100;55.848;37.636;2022-11-15T14:44:42;15.40;;;5.95;;
45366;SDS011;31100;55.848;37.636;2022-11-15T14:47:08;16.05;;;6.03;;
45366;SDS011;31100;55.848;37.636;2022-11-15T14:49:33;15.32;;;6.57;;
45366;SDS011;31100;55.848;37.636;2022-11-15T14:51:59;15.82;;;6.72;;
45366;SDS011;31100;55.848;37.636;2022-11-15T14:54:24;14.23;;;6.07;;
45366;SDS011;31100;55.848;37.636;2022-11-15T14:56:50;17.90;;;7.57;;
45366;SDS011;31100;55.848;37.636;2022-11-15T14:59:15;14.70;;;6.55;;
45366;SDS011;31100;55.848;37.636;2022-11-15T15:01:41;17.77;;;6.85;;
45366;SDS011;31100;55.848;37.636;2022-11-15T15:04:08;15.65;;;6.18;;
45366;SDS011;31100;55.848;37.636;2022-11-15T15:06:35;16.33;;;7.40;;
45366;SDS011;31100;55.848;37.636;2022-11-15T15:09:00;18.13;;;6.88;;
45366;SDS011;31100;55.848;37.636;2022-11-15T15:11:28;14.20;;;5.60;;
45366;SDS011;31100;55.848;37.636;2022-11-15T15:13:55;16.60;;;7.88;;
45366;SDS011;31100;55.848;37.636;2022-11-15T15:16:24;15.55;;;6.35;;
45366;SDS011;31100;55.848;37.636;2022-11-15T15:18:50;18.27;;;7.38;;
45366;SDS011;31100;55.848;37.636;2022-11-15T15:21:25;15.80;;;6.90;;
45366;SDS011;31100;55.848;37.636;2022-11-15T15:23:52;15.65;;;6.07;;
45366;SDS011;31100;55.848;37.636;2022-11-15T15:26:21;15.15;;;6.10;;
45366;SDS011;31100;55.848;37.636;2022-11-15T15:28:48;16.65;;;6.57;;
45366;SDS011;31100;55.848;37.636;2022-11-15T15:31:17;14.32;;;5.93;;
45366;SDS011;31100;55.848;37.636;2022-11-15T15:33:45;9.80;;;4.97;;
45366;SDS011;31100;55.848;37.636;2022-11-15T15:36:15;11.55;;;4.70;;
45366;SDS011;31100;55.848;37.636;2022-11-15T15:38:46;10.10;;;4.65;;
45366;SDS011;31100;55.848;37.636;2022-11-15T15:41:12;11.18;;;5.00;;
45366;SDS011;31100;55.848;37.636;2022-11-15T15:43:38;14.55;;;6.10;;
45366;SDS011;31100;55.848;37.636;2022-11-15T15:46:14;11.35;;;5.70;;
45366;SDS011;31100;55.848;37.636;2022-11-15T15:48:47;13.73;;;6.18;;
45366;SDS011;31100;55.848;37.636;2022-11-15T15:51:13;12.32;;;5.13;;
45366;SDS011;31100;55.848;37.636;2022-11-15T15:53:41;13.63;;;6.60;;
45366;SDS011;31100;55.848;37.636;2022-11-15T15:56:07;13.75;;;5.22;;
45366;SDS011;31100;55.848;37.636;2022-11-15T15:58:33;12.32;;;5.40;;
45366;SDS011;31100;55.848;37.636;2022-11-15T16:00:59;10.48;;;5.20;;
45366;SDS011;31100;55.848;37.636;2022-11-15T16:03:25;10.90;;;5.22;;
45366;SDS011;31100;55.848;37.636;2022-11-15T16:05:52;11.38;;;5.18;;
45366;SDS011;31100;55.848;37.636;2022-11-15T16:08:19;11.52;;;4.90;;
45366;SDS011;31100;55.848;37.636;2022-11-15T16:10:46;8.30;;;4.35;;
45366;SDS011;31100;55.848;37.636;2022-11-15T16:13:12;13.68;;;5.45;;
45366;SDS011;31100;55.848;37.636;2022-11-15T16:15:40;15.20;;;6.25;;
45366;SDS011;31100;55.848;37.636;2022-11-15T16:18:09;10.88;;;5.85;;
45366;SDS011;31100;55.848;37.636;2022-11-15T16:20:41;11.23;;;5.35;;
45366;SDS011;31100;55.848;37.636;2022-11-15T16:23:11;12.48;;;5.38;;
45366;SDS011;31100;55.848;37.636;2022-11-15T16:25:42;10.95;;;5.63;;
45366;SDS011;31100;55.848;37.636;2022-11-15T16:30:43;9.97;;;5.93;;
45366;SDS011;31100;55.848;37.636;2022-11-15T16:33:08;14.02;;;6.63;;
45366;SDS011;31100;55.848;37.636;2022-11-15T16:35:34;16.23;;;8.43;;
45366;SDS011;31100;55.848;37.636;2022-11-15T16:38:00;14.68;;;7.05;;
45366;SDS011;31100;55.848;37.636;2022-11-15T16:40:29;14.20;;;7.85;;